Terminal Aerodrome Forecast
Issued by NWS

Home | Current Version | Previous Version | Text Only | Print | Product List | Glossary On
Versions: 1 2 3 4 5 6 7 8 9 10 11 12 13 14
000
FTUS43 KICT 302335
TAFSLN
TAF
KSLN 302335Z 3100/3124 19007KT P6SM FEW250
     FM310500 VRB03KT P6SM SCT250
     FM310900 36005KT P6SM FEW200
     FM311300 06006KT P6SM SKC
     FM311600 11012KT P6SM SKC=

USA.gov is the U.S. government's official web portal to all federal, state and local government web resources and services.